West Laurens, New York
Current Conditions -  °F | °C
As of 6:53 PM on Monday 22 Dec 2014 (Local Time) from KBGM Reporting Station
Overcast Overcast  
Wind Chill: 25°   Ceiling: 900
Heat Index: 33°   Visibility: 10mi
Dew Point: 30°   Wind: 9mph
Humidity: 89%   Direction: 150°SSE
Pressure: 30.13"   Gusts: NA
Location:  42.5392°N, 75.1508°W
Report Text: KBGM 222353Z 15008KT 10SM BKN009 OVC014 01/M01 A3013 RMK AO2 CIG 007V012 SLP221 T00061011 10022 20000 55006
Loading
Personal Weather Stations






























Interactive Weather Map New forecast layout! Learn more

10-Day Weather Forecast

Advertisements
Track Severe Weather on mobile